Hinesville, GA (31313)

9:15 PM EST on February 27, 2015 (GMT -0500)
Elim / Davenport Acres - Long County | Change Station
CLOSE
Current Station
Personal Weather Station
Location: Ludowici, GA
Elevation: 89 ft
Nearby Weather Stations

Elev 89 ft 31.79 °N, 81.69 °W | Updated 23 seconds ago

Partly Cloudy
Partly Cloudy
43.7 °F
Feels Like 42 °F
N
3.5
Wind Variable Wind from East
Gusts 3.5 mph

Today
High -- | Low -- °F
--% Chance of Precip.
Yesterday
High -- | Low -- °F
Precip. -- in
6:56 AM 6:22 PM
Waxing Gibbous, 73% visible
Pressure 30.40 in
Visibility 10.0 miles
Clouds Clear
Windchill 42 °F
Dew Point 38 °F
Humidity 81%
Rainfall 0.00 in
Snow Depth Not available.
UV 0 out of 12
Pollen 7.50 out of 12
Air Quality Not available.
Flu Activity Not available.
METAR KLHW 280158Z AUTO 06004KT 10SM CLR 06/03 A3039 RMK AO2 SLP294 T00600028

More Conditions Fewer Conditions

Pressure 30.40 in
Visibility 10.0 miles
Clouds Clear
Windchill 42 °F
Dew Point 38 °F
Humidity 81%
Rainfall 0.00 in
Snow Depth Not available.
UV 0 out of 12
Pollen 7.50 out of 12
Air Quality Not available.
Flu Activity Not available.
METAR KLHW 280158Z AUTO 06004KT 10SM CLR 06/03 A3039 RMK AO2 SLP294 T00600028

More Conditions Fewer Conditions

10-Day Weather Forecast

Almanac

Astronomy

Feb. 27, 2015 Rise Set
Actual Time
Civil Twilight
Nautical Twilight
Astronomical Twilight
Moon
Length of Visible Light
Length of Day
Tomorrow will be .
, % of the Moon is Illuminated

Today's Extremes

State Highs State Lows

Community

WunderPhotos

Upload Photos

1,800,936 photos uploaded!

WunderBlogs® & News

Nearby

Air Quality

  Air Quality AQ Index Pollutant
Not available.

Snow Depth

Station Depth Elevation

Earthquake Activity

City Distance Mag. Time & Date
Minimum magnitude displayed is 2.5.

Coastal Water Temperatures

Place Temperature

Nearby Weather Stations